Time;durP1;ratioP1;P1;durP2;ratioP2;P2;SDS_P1;SDS_P2;PMS_P1;PMS_P2;Temp;Humidity;BMP_temperature;BMP_pressure;BME280_temperature;BME280_humidity;BME280_pressure;Samples;Min_cycle;Max_cycle;Signal;HPM_P1;HPM_P2
2022/08/07 00:01:17;;;;;;;7.20;4.25;;;;;;;12.31;86.34;99649.55;2291276;78;20963;-78
2022/08/07 00:04:17;;;;;;;6.78;4.67;;;;;;;12.29;86.39;99649.95;2291054;78;20921;-78
2022/08/07 00:07:17;;;;;;;6.53;4.87;;;;;;;12.28;86.53;99645.58;2291168;78;21292;-79
2022/08/07 00:10:18;;;;;;;4.65;4.20;;;;;;;12.27;86.55;99638.15;2291265;78;20948;-78
2022/08/07 00:13:18;;;;;;;4.80;4.30;;;;;;;12.30;86.65;99643.44;2281784;78;21029;-78
2022/08/07 00:16:19;;;;;;;5.00;4.50;;;;;;;12.30;86.51;99644.75;2281301;78;21365;-78
2022/08/07 00:19:19;;;;;;;6.87;3.98;;;;;;;12.30;86.67;99642.55;2281345;77;20906;-78
2022/08/07 00:22:19;;;;;;;7.90;4.30;;;;;;;12.32;86.96;99643.03;2281569;78;20977;-79
2022/08/07 00:25:20;;;;;;;11.95;5.92;;;;;;;12.35;86.99;99647.02;2281480;78;21325;-78
2022/08/07 00:28:20;;;;;;;10.55;5.67;;;;;;;12.42;88.91;99654.55;2281281;78;20965;-79
2022/08/07 00:31:21;;;;;;;6.35;5.10;;;;;;;12.47;88.63;99659.86;2281579;78;20946;-78
2022/08/07 00:34:21;;;;;;;6.10;5.30;;;;;;;12.43;87.40;99655.89;2281385;77;21342;-79
2022/08/07 00:37:21;;;;;;;6.87;4.90;;;;;;;12.40;87.57;99661.50;2281186;78;20961;-79
2022/08/07 00:40:22;;;;;;;6.55;4.87;;;;;;;12.40;87.77;99661.50;2281800;78;20906;-79
2022/08/07 00:43:22;;;;;;;7.15;5.47;;;;;;;12.39;87.56;99663.23;2281091;78;21329;-79
2022/08/07 00:46:23;;;;;;;9.33;4.90;;;;;;;12.39;87.64;99662.35;2281290;78;20961;-79
2022/08/07 00:49:23;;;;;;;6.42;4.70;;;;;;;12.38;87.59;99658.85;2281248;77;20966;-79
2022/08/07 00:52:23;;;;;;;10.15;4.85;;;;;;;12.36;87.43;99647.90;2281379;78;21274;-79
2022/08/07 00:55:24;;;;;;;6.30;4.90;;;;;;;12.28;87.16;99650.38;2281196;78;20886;-79
2022/08/07 00:58:24;;;;;;;6.12;4.50;;;;;;;12.20;87.07;99654.59;2281209;78;20977;-78
2022/08/07 01:01:25;;;;;;;6.83;4.37;;;;;;;12.13;87.11;99656.19;2281287;78;21322;-78
2022/08/07 01:04:25;;;;;;;6.80;4.42;;;;;;;12.08;87.26;99653.91;2281337;78;20922;-79
2022/08/07 01:07:25;;;;;;;6.85;4.70;;;;;;;12.04;87.29;99655.14;2281574;78;20930;-78
2022/08/07 01:10:26;;;;;;;5.20;4.55;;;;;;;12.00;87.28;99660.73;2281560;78;20976;-79
2022/08/07 01:13:26;;;;;;;5.90;4.80;;;;;;;11.97;87.45;99656.76;2289841;77;20996;-78
2022/08/07 01:16:27;;;;;;;7.17;4.42;;;;;;;11.99;87.33;99652.86;2291238;78;20964;-78
2022/08/07 01:19:27;;;;;;;6.60;4.67;;;;;;;11.96;87.62;99657.61;2290783;78;20952;-78
2022/08/07 01:22:27;;;;;;;13.13;4.95;;;;;;;11.94;87.61;99654.08;2291062;78;21280;-78
2022/08/07 01:25:28;;;;;;;5.60;4.22;;;;;;;11.93;87.47;99654.94;2291261;78;20957;-78
2022/08/07 01:28:28;;;;;;;7.20;4.65;;;;;;;11.87;87.31;99656.55;2291056;78;20975;-78
2022/08/07 01:31:32;;;;;;;7.47;5.03;;;;;;;11.83;87.67;99666.07;2291017;78;21292;-78
2022/08/07 01:34:29;;;;;;;6.25;5.33;;;;;;;11.85;88.02;99668.29;2291181;78;20940;-78
2022/08/07 01:37:29;;;;;;;8.35;5.30;;;;;;;11.89;88.82;99661.38;2290967;78;21291;-78
2022/08/07 01:40:30;;;;;;;7.83;5.35;;;;;;;11.86;88.53;99662.20;2291100;78;20980;-78
2022/08/07 01:43:30;;;;;;;7.58;5.17;;;;;;;11.77;87.95;99658.98;2290743;78;21023;-78
2022/08/07 01:46:30;;;;;;;6.47;5.33;;;;;;;11.69;87.96;99655.72;2290681;78;20944;-78
2022/08/07 01:49:31;;;;;;;8.50;4.85;;;;;;;11.67;88.66;99651.77;2291002;78;21272;-78
2022/08/07 01:52:31;;;;;;;7.50;4.78;;;;;;;11.65;87.90;99658.70;2290931;78;20951;-78
2022/08/07 01:55:32;;;;;;;7.05;5.22;;;;;;;11.55;87.65;99653.25;2291009;78;20944;-78
2022/08/07 01:58:32;;;;;;;6.75;5.40;;;;;;;11.49;87.97;99647.05;2291399;78;20908;-78
2022/08/07 02:01:33;;;;;;;6.62;4.45;;;;;;;11.46;87.94;99649.60;2291101;78;20967;-78
2022/08/07 02:04:33;;;;;;;10.03;5.10;;;;;;;11.41;87.70;99647.31;2291231;78;20904;-78
2022/08/07 02:07:33;;;;;;;13.23;5.13;;;;;;;11.35;87.80;99658.95;2291105;78;20900;-78
2022/08/07 02:10:34;;;;;;;6.33;5.25;;;;;;;11.31;87.68;99657.11;2291024;78;21390;-78
2022/08/07 02:13:34;;;;;;;6.90;5.17;;;;;;;11.32;88.07;99655.38;2281711;78;21020;-78
2022/08/07 02:16:35;;;;;;;9.33;5.30;;;;;;;11.33;88.26;99652.80;2280681;77;20949;-78
2022/08/07 02:19:35;;;;;;;7.08;6.17;;;;;;;11.36;88.10;99646.76;2280879;77;21345;-78
2022/08/07 02:22:35;;;;;;;7.30;5.90;;;;;;;11.31;87.77;99653.20;2280866;77;20978;-79
2022/08/07 02:25:36;;;;;;;9.50;6.20;;;;;;;11.22;87.79;99651.66;2280985;77;20938;-79
2022/08/07 02:28:36;;;;;;;10.60;6.97;;;;;;;11.24;88.19;99656.48;2281259;78;21344;-79
2022/08/07 02:31:36;;;;;;;9.80;6.47;;;;;;;11.24;88.10;99664.75;2281494;78;20969;-79
2022/08/07 02:34:37;;;;;;;8.00;6.08;;;;;;;11.20;88.02;99659.00;2281615;78;20938;-79
2022/08/07 02:37:38;;;;;;;10.87;6.07;;;;;;;11.18;88.33;99661.16;2280970;78;21005;-79
2022/08/07 02:40:38;;;;;;;8.53;6.70;;;;;;;11.16;88.25;99654.13;2280988;78;20993;-79
2022/08/07 02:43:38;;;;;;;11.07;7.00;;;;;;;11.14;88.35;99655.83;2281426;78;21054;-79
2022/08/07 02:46:39;;;;;;;12.15;8.30;;;;;;;11.11;88.46;99656.64;2281474;78;20937;-79
2022/08/07 02:49:39;;;;;;;7.85;6.92;;;;;;;11.12;88.82;99657.09;2281568;78;20988;-79
2022/08/07 02:52:40;;;;;;;13.55;7.10;;;;;;;11.16;88.26;99662.85;2281641;78;20915;-78
2022/08/07 02:55:41;;;;;;;14.03;8.28;;;;;;;11.16;88.26;99662.85;2281997;78;21278;-79
2022/08/07 02:58:43;;;;;;;7.65;6.53;;;;;;;11.11;88.39;99666.21;2282017;78;21305;-78
2022/08/07 03:01:44;;;;;;;11.23;6.73;;;;;;;11.11;88.72;99670.12;2281778;78;20898;-78
2022/08/07 03:04:44;;;;;;;10.15;6.42;;;;;;;11.10;88.16;99668.36;2281695;78;20930;-79
2022/08/07 03:07:46;;;;;;;7.62;6.00;;;;;;;11.03;87.97;99673.87;2281351;78;20930;-79
2022/08/07 03:10:45;;;;;;;9.35;6.08;;;;;;;11.00;88.11;99672.50;2281655;78;20902;-78
2022/08/07 03:13:45;;;;;;;9.85;6.70;;;;;;;11.02;88.22;99676.45;2281115;78;21345;-79
2022/08/07 03:16:45;;;;;;;10.23;6.33;;;;;;;11.06;88.70;99678.29;2281328;77;20973;-78
2022/08/07 03:19:46;;;;;;;8.37;6.50;;;;;;;11.08;88.40;99680.09;2281598;78;20902;-78
2022/08/07 03:22:46;;;;;;;11.78;5.83;;;;;;;10.99;87.87;99679.88;2281391;78;21274;-78
2022/08/07 03:25:47;;;;;;;13.03;6.63;;;;;;;10.98;88.42;99674.19;2281009;78;20970;-78
2022/08/07 03:28:47;;;;;;;9.50;6.40;;;;;;;11.03;88.07;99676.48;2281590;78;20926;-78
2022/08/07 03:31:47;;;;;;;9.57;6.67;;;;;;;11.05;88.14;99681.33;2281525;78;20952;-78
2022/08/07 03:34:48;;;;;;;13.35;6.90;;;;;;;11.07;87.83;99673.52;2281342;78;20930;-78
2022/08/07 03:37:48;;;;;;;6.95;5.70;;;;;;;11.07;87.75;99669.17;2281614;77;20923;-78
2022/08/07 03:40:49;;;;;;;6.28;5.65;;;;;;;11.14;88.22;99674.13;2281423;78;20957;-78
2022/08/07 03:43:49;;;;;;;9.45;6.37;;;;;;;11.27;88.40;99675.28;2281251;78;20990;-78
2022/08/07 03:46:49;;;;;;;10.65;5.70;;;;;;;11.34;87.68;99677.20;2281599;78;20961;-78
2022/08/07 03:49:50;;;;;;;10.45;6.12;;;;;;;11.35;87.32;99677.24;2281487;78;20910;-78
2022/08/07 03:52:50;;;;;;;7.45;5.78;;;;;;;11.42;87.43;99679.14;2281437;78;20902;-78
2022/08/07 03:55:51;;;;;;;12.43;5.47;;;;;;;11.56;87.68;99679.86;2281383;78;20997;-78
2022/08/07 03:58:51;;;;;;;8.40;5.12;;;;;;;11.67;87.05;99685.77;2281621;78;20894;-78
2022/08/07 04:01:51;;;;;;;7.33;5.58;;;;;;;11.75;87.23;99682.00;2281120;78;21262;-78
2022/08/07 04:04:52;;;;;;;5.25;4.75;;;;;;;11.93;87.69;99682.83;2280888;78;20989;-78
2022/08/07 04:07:52;;;;;;;6.40;5.78;;;;;;;12.07;87.74;99682.67;2281258;78;21001;-78
2022/08/07 04:10:53;;;;;;;7.20;5.35;;;;;;;12.16;88.20;99694.66;2281459;78;20972;-77
2022/08/07 04:13:53;;;;;;;7.70;5.62;;;;;;;12.21;87.74;99693.43;2254453;78;21003;-78
2022/08/07 04:16:53;;;;;;;6.83;5.05;;;;;;;12.22;87.76;99698.70;2249077;78;20955;-77
2022/08/07 04:19:54;;;;;;;7.40;5.72;;;;;;;12.34;88.11;99699.35;2249185;78;20901;-79
2022/08/07 04:22:54;;;;;;;9.18;5.37;;;;;;;12.52;88.12;99703.61;2249543;78;20896;-80
2022/08/07 04:25:55;;;;;;;8.00;5.80;;;;;;;12.70;87.98;99698.69;2249544;78;20884;-80
2022/08/07 04:28:55;;;;;;;25.23;7.37;;;;;;;12.80;87.62;99702.34;2249712;79;20912;-79
2022/08/07 04:31:55;;;;;;;10.28;6.30;;;;;;;12.89;87.72;99708.16;2249559;78;20931;-79
2022/08/07 04:34:56;;;;;;;9.53;6.00;;;;;;;12.98;87.73;99704.37;2249492;78;20943;-78
2022/08/07 04:37:56;;;;;;;6.10;5.55;;;;;;;13.45;96.33;99702.95;2249537;78;20939;-79
2022/08/07 04:40:57;;;;;;;6.08;5.45;;;;;;;14.15;89.79;99709.11;2249640;79;20932;-78
2022/08/07 04:43:57;;;;;;;9.73;5.37;;;;;;;14.79;90.35;99703.25;2249245;78;21326;-78
2022/08/07 04:46:57;;;;;;;6.17;4.80;;;;;;;15.83;88.13;99712.31;2249501;78;20928;-79
2022/08/07 04:49:58;;;;;;;6.67;5.97;;;;;;;16.13;85.33;99715.50;2249557;78;20916;-78
2022/08/07 04:52:58;;;;;;;5.92;5.33;;;;;;;16.25;81.20;99712.91;2249427;78;21283;-78
2022/08/07 04:55:59;;;;;;;9.53;6.22;;;;;;;15.80;80.34;99723.27;2249340;78;20956;-78
2022/08/07 04:58:59;;;;;;;9.98;6.20;;;;;;;15.85;79.23;99725.48;2249629;78;20967;-82
2022/08/07 05:01:59;;;;;;;7.33;6.37;;;;;;;15.24;78.45;99728.58;2249327;79;21276;-81
2022/08/07 05:05:00;;;;;;;9.40;6.22;;;;;;;14.91;79.83;99726.57;2249493;78;20967;-80
2022/08/07 05:08:00;;;;;;;6.85;6.22;;;;;;;15.38;83.75;99727.79;2249629;79;20983;-80
2022/08/07 05:11:01;;;;;;;7.20;6.50;;;;;;;16.53;83.71;99727.49;2249293;78;20956;-80
2022/08/07 05:14:01;;;;;;;9.90;6.28;;;;;;;17.25;80.64;99728.88;2273945;78;20974;-80
2022/08/07 05:17:02;;;;;;;9.23;6.20;;;;;;;17.84;78.44;99730.12;2281502;78;20910;-80
2022/08/07 05:20:02;;;;;;;7.95;7.15;;;;;;;18.68;76.34;99729.75;2281497;78;20977;-80
2022/08/07 05:23:02;;;;;;;7.70;6.45;;;;;;;18.58;71.71;99740.80;2281373;78;21254;-80
2022/08/07 05:26:03;;;;;;;9.35;6.67;;;;;;;17.79;72.75;99744.66;2281370;77;20898;-80
2022/08/07 05:29:03;;;;;;;10.85;6.53;;;;;;;17.41;75.21;99742.52;2281625;78;20934;-80
2022/08/07 05:32:04;;;;;;;8.15;6.20;;;;;;;17.65;75.53;99745.11;2281576;77;20910;-80
2022/08/07 05:35:04;;;;;;;7.22;6.53;;;;;;;17.92;76.56;99741.54;2281516;78;21329;-80
2022/08/07 05:38:05;;;;;;;7.90;6.37;;;;;;;18.48;74.81;99735.14;2281492;78;20946;-80
2022/08/07 05:41:05;;;;;;;9.08;5.80;;;;;;;18.66;73.24;99739.02;2281736;78;20891;-80
2022/08/07 05:44:05;;;;;;;7.90;6.30;;;;;;;18.58;73.32;99734.20;2281334;78;21016;-80
2022/08/07 05:47:06;;;;;;;7.62;6.90;;;;;;;18.69;72.08;99734.16;2281819;78;20934;-80
2022/08/07 05:50:06;;;;;;;6.75;6.03;;;;;;;17.85;70.67;99745.53;2281792;78;20895;-80
2022/08/07 05:53:07;;;;;;;8.38;6.50;;;;;;;16.85;72.60;99745.58;2281875;78;21007;-80
2022/08/07 05:56:07;;;;;;;7.50;6.67;;;;;;;16.20;74.68;99750.65;2281861;78;20914;-80
2022/08/07 05:59:08;;;;;;;9.58;7.12;;;;;;;16.19;77.43;99752.84;2282225;77;20930;-80
2022/08/07 06:02:08;;;;;;;6.92;6.25;;;;;;;16.32;76.84;99751.13;2282688;78;21404;-81
2022/08/07 06:05:08;;;;;;;7.23;6.50;;;;;;;17.03;78.45;99753.06;2280452;78;20894;-79
2022/08/07 06:08:08;;;;;;;7.62;6.92;;;;;;;17.47;76.61;99753.95;2280692;78;21005;-79
2022/08/07 06:11:09;;;;;;;9.95;6.20;;;;;;;17.79;75.27;99752.59;2281067;78;20969;-79
2022/08/07 06:14:09;;;;;;;5.92;5.28;;;;;;;17.79;74.06;99754.34;2256623;78;21336;-79
2022/08/07 06:17:12;;;;;;;6.72;5.50;;;;;;;18.32;75.37;99755.94;2248697;78;21008;-80
2022/08/07 06:20:10;;;;;;;6.42;4.80;;;;;;;19.18;73.68;99757.18;2248752;79;20912;-80
2022/08/07 06:23:10;;;;;;;5.72;4.60;;;;;;;19.73;71.61;99756.69;2248751;79;21205;-81
2022/08/07 06:26:11;;;;;;;4.95;4.00;;;;;;;19.62;70.99;99757.23;2248934;79;20918;-80
2022/08/07 06:29:11;;;;;;;3.85;3.30;;;;;;;19.96;68.99;99752.03;2248542;78;20909;-80
2022/08/07 06:32:12;;;;;;;8.23;3.52;;;;;;;20.01;69.44;99748.00;2248938;78;21333;-79
2022/08/07 06:35:12;;;;;;;3.50;2.65;;;;;;;19.99;67.15;99755.09;2248827;78;20916;-80
2022/08/07 06:38:12;;;;;;;3.67;3.00;;;;;;;19.58;64.39;99758.17;2248903;78;20940;-79
2022/08/07 06:41:13;;;;;;;2.67;2.42;;;;;;;18.96;65.81;99756.44;2249020;78;20932;-80
2022/08/07 06:44:14;;;;;;;3.10;2.35;;;;;;;18.89;65.76;99755.17;2248651;78;21438;-79
2022/08/07 06:47:14;;;;;;;3.95;2.22;;;;;;;19.26;64.29;99762.41;2249261;78;21004;-79
2022/08/07 06:50:15;;;;;;;5.15;2.05;;;;;;;19.68;66.47;99760.70;2248850;78;21272;-80
2022/08/07 06:53:15;;;;;;;2.77;1.80;;;;;;;19.86;61.10;99768.02;2248895;79;20935;-80
2022/08/07 06:56:15;;;;;;;2.25;1.82;;;;;;;19.54;60.88;99762.61;2249831;79;20939;-81
2022/08/07 06:59:16;;;;;;;3.50;1.80;;;;;;;19.63;59.04;99766.50;2249819;79;21332;-80
2022/08/07 07:02:16;;;;;;;3.92;1.70;;;;;;;19.36;58.93;99770.70;2249529;78;20916;-81
2022/08/07 07:05:17;;;;;;;2.60;1.85;;;;;;;19.34;57.69;99769.39;2249843;78;20920;-81
2022/08/07 07:08:17;;;;;;;3.37;1.60;;;;;;;19.60;58.80;99762.55;2249637;79;21308;-79
2022/08/07 07:11:17;;;;;;;3.25;1.62;;;;;;;20.55;57.53;99766.33;2249489;79;20873;-80
2022/08/07 07:14:18;;;;;;;2.55;1.80;;;;;;;21.35;54.67;99765.15;2272127;78;20959;-79
2022/08/07 07:17:18;;;;;;;2.85;1.55;;;;;;;21.87;53.75;99765.11;2281671;78;21014;-80
2022/08/07 07:20:19;;;;;;;4.00;1.62;;;;;;;21.78;52.16;99763.50;2281427;78;20903;-79
2022/08/07 07:23:19;;;;;;;7.65;2.00;;;;;;;21.19;53.44;99764.05;2281563;78;20939;-79
2022/08/07 07:26:19;;;;;;;2.12;1.62;;;;;;;21.43;51.44;99753.48;2281997;78;20973;-80
2022/08/07 07:29:20;;;;;;;4.20;1.55;;;;;;;21.86;52.81;99758.04;2282623;77;20969;-79
2022/08/07 07:32:20;;;;;;;2.47;1.75;;;;;;;22.48;50.39;99748.78;2280799;78;20988;-79
2022/08/07 07:35:21;;;;;;;3.47;1.70;;;;;;;22.78;49.16;99738.38;2280786;78;20946;-81
2022/08/07 07:38:21;;;;;;;2.27;1.70;;;;;;;23.03;49.21;99746.23;2280591;78;21326;-79
2022/08/07 07:41:22;;;;;;;3.22;1.60;;;;;;;23.17;48.33;99743.23;2280244;78;20993;-79
2022/08/07 07:44:22;;;;;;;2.83;1.70;;;;;;;23.25;46.84;99738.58;2280280;77;20977;-80
2022/08/07 07:47:22;;;;;;;3.37;1.52;;;;;;;23.27;47.59;99743.41;2280484;78;21338;-80
2022/08/07 07:50:23;;;;;;;2.60;1.77;;;;;;;23.01;48.54;99744.52;2280748;78;20887;-80
2022/08/07 07:53:23;;;;;;;3.00;1.50;;;;;;;23.36;47.46;99739.18;2280718;78;20914;-81
2022/08/07 07:56:23;;;;;;;4.72;1.65;;;;;;;23.75;48.11;99740.43;2280486;78;20953;-80
2022/08/07 07:59:24;;;;;;;6.60;1.90;;;;;;;23.56;48.01;99740.52;2280347;77;20938;-80
2022/08/07 08:02:24;;;;;;;1.77;1.60;;;;;;;22.97;48.60;99738.39;2280540;78;20938;-79
2022/08/07 08:05:25;;;;;;;2.52;1.60;;;;;;;23.07;48.46;99737.72;2281589;78;20981;-80
2022/08/07 08:08:25;;;;;;;1.87;1.50;;;;;;;22.51;48.34;99741.19;2281493;78;20946;-79
2022/08/07 08:11:25;;;;;;;4.15;1.77;;;;;;;22.20;49.72;99743.19;2280866;78;20914;-79
2022/08/07 08:14:26;;;;;;;4.25;2.02;;;;;;;22.75;50.20;99735.34;2287201;78;20951;-80
2022/08/07 08:17:26;;;;;;;1.52;1.42;;;;;;;22.82;48.57;99736.98;2291426;78;21312;-79
2022/08/07 08:20:27;;;;;;;4.45;1.95;;;;;;;22.50;48.74;99729.67;2291128;78;20973;-79
2022/08/07 08:27:04;;;;;;;1.47;1.32;;;;;;;22.16;49.40;99743.28;2291297;78;21304;-80
2022/08/07 08:30:04;;;;;;;3.15;1.60;;;;;;;22.38;50.37;99731.73;2290852;78;20956;-80
2022/08/07 08:33:05;;;;;;;3.17;1.60;;;;;;;22.74;50.40;99730.05;2291382;78;21014;-79
2022/08/07 08:36:05;;;;;;;3.65;1.70;;;;;;;23.13;49.54;99725.13;2290855;78;21307;-79
2022/08/07 08:39:05;;;;;;;1.62;1.42;;;;;;;22.82;48.34;99728.99;2290821;78;20980;-79
2022/08/07 08:42:06;;;;;;;2.85;1.35;;;;;;;23.22;48.64;99725.34;2291012;78;20900;-80
2022/08/07 08:45:06;;;;;;;4.45;1.45;;;;;;;23.49;46.00;99726.45;2290846;78;21319;-80
2022/08/07 08:48:07;;;;;;;4.67;1.50;;;;;;;22.76;46.38;99735.76;2290598;78;20940;-79
2022/08/07 08:51:07;;;;;;;3.27;1.60;;;;;;;22.15;46.92;99741.53;2290934;78;20944;-80
2022/08/07 08:54:07;;;;;;;3.55;1.35;;;;;;;21.84;47.05;99742.13;2291186;78;20964;-80
2022/08/07 08:57:08;;;;;;;2.50;1.45;;;;;;;21.79;47.16;99737.80;2290786;78;20968;-79
2022/08/07 09:00:08;;;;;;;2.33;1.20;;;;;;;21.77;47.70;99739.61;2291002;78;20901;-80
2022/08/07 09:03:09;;;;;;;1.40;1.10;;;;;;;21.69;48.35;99738.88;2290718;78;20940;-79
2022/08/07 09:06:09;;;;;;;4.35;1.62;;;;;;;21.97;47.96;99738.77;2291236;78;21320;-80
2022/08/07 09:09:09;;;;;;;4.10;1.85;;;;;;;22.54;47.18;99743.78;2290686;78;20952;-79
2022/08/07 09:12:10;;;;;;;3.47;1.57;;;;;;;22.96;44.74;99741.09;2291148;78;20905;-79
2022/08/07 09:15:10;;;;;;;3.67;1.40;;;;;;;22.99;44.92;99733.03;2282364;78;21378;-79
2022/08/07 09:18:11;;;;;;;5.03;1.77;;;;;;;22.86;43.33;99734.66;2281045;78;20930;-79
2022/08/07 09:21:11;;;;;;;2.22;1.67;;;;;;;22.75;44.21;99734.01;2281487;78;20926;-79
2022/08/07 09:24:11;;;;;;;1.45;1.10;;;;;;;22.60;44.92;99731.70;2281203;78;21365;-79
2022/08/07 09:27:12;;;;;;;4.78;1.40;;;;;;;21.99;43.94;99730.76;2281639;78;20950;-80
2022/08/07 09:30:12;;;;;;;2.37;1.20;;;;;;;21.66;45.16;99725.63;2282035;78;21316;-80
2022/08/07 09:33:13;;;;;;;3.60;1.35;;;;;;;21.13;44.81;99732.30;2281847;77;20953;-80
2022/08/07 09:36:13;;;;;;;6.28;1.30;;;;;;;20.74;46.33;99731.58;2281523;78;20970;-79
2022/08/07 09:39:13;;;;;;;3.45;1.40;;;;;;;20.54;47.62;99722.59;2281652;77;20970;-79
2022/08/07 09:42:14;;;;;;;2.30;1.20;;;;;;;20.98;47.45;99718.83;2281485;77;20929;-80
2022/08/07 09:45:14;;;;;;;2.27;1.30;;;;;;;21.45;44.75;99716.28;2281353;78;21358;-80
2022/08/07 09:48:15;;;;;;;2.15;1.22;;;;;;;21.89;44.11;99712.80;2281485;78;20879;-79
2022/08/07 09:51:15;;;;;;;1.98;1.10;;;;;;;22.12;44.55;99703.92;2281452;78;20891;-81
2022/08/07 09:54:15;;;;;;;5.03;1.00;;;;;;;22.42;43.64;99698.83;2281245;78;21357;-81
2022/08/07 09:57:16;;;;;;;4.37;1.20;;;;;;;22.71;44.87;99699.06;2281211;78;21040;-80
2022/08/07 10:00:16;;;;;;;5.60;1.15;;;;;;;23.61;43.32;99693.30;2281476;78;20946;-81
2022/08/07 10:03:17;;;;;;;4.75;1.30;;;;;;;24.27;40.73;99688.28;2280993;78;21380;-82
2022/08/07 10:06:17;;;;;;;1.98;1.25;;;;;;;23.78;40.98;99700.36;2281252;78;20938;-81
2022/08/07 10:09:18;;;;;;;2.55;1.10;;;;;;;23.34;41.80;99693.52;2281329;77;20943;-81
2022/08/07 10:12:18;;;;;;;3.10;1.10;;;;;;;22.60;43.37;99695.78;2281557;78;20973;-81
2022/08/07 10:15:18;;;;;;;2.40;1.10;;;;;;;22.05;43.85;99698.77;2254581;78;21007;-81
2022/08/07 10:18:19;;;;;;;1.92;1.07;;;;;;;21.61;45.83;99697.81;2249093;79;21015;-81
2022/08/07 10:21:19;;;;;;;3.33;1.42;;;;;;;21.36;45.90;99694.75;2249039;78;20943;-81
2022/08/07 10:24:19;;;;;;;3.35;1.20;;;;;;;21.83;46.59;99687.22;2248913;79;21313;-81
2022/08/07 10:27:21;;;;;;;3.95;1.45;;;;;;;22.17;45.30;99691.86;2248434;78;20999;-81
2022/08/07 10:30:20;;;;;;;2.65;1.42;;;;;;;22.17;45.08;99683.88;2249131;78;20896;-81
2022/08/07 10:33:21;;;;;;;2.42;1.12;;;;;;;22.20;44.89;99672.72;2249137;79;20904;-82
2022/08/07 10:36:21;;;;;;;2.90;1.15;;;;;;;22.14;45.30;99682.16;2249095;78;20940;-81
2022/08/07 10:39:21;;;;;;;5.53;1.07;;;;;;;22.43;45.37;99672.20;2249207;79;20952;-81
2022/08/07 10:42:22;;;;;;;3.15;1.02;;;;;;;22.89;42.73;99663.17;2249359;78;20971;-81
2022/08/07 10:45:22;;;;;;;3.58;0.90;;;;;;;22.95;40.77;99667.47;2248958;78;21415;-82
2022/08/07 10:48:23;;;;;;;1.42;1.10;;;;;;;23.51;40.38;99663.33;2249072;79;21048;-81
2022/08/07 10:51:23;;;;;;;2.10;1.30;;;;;;;24.44;40.43;99652.64;2249648;79;20928;-81
2022/08/07 10:54:23;;;;;;;2.60;1.20;;;;;;;24.52;38.03;99649.27;2249927;78;20905;-82
2022/08/07 10:57:24;;;;;;;2.25;1.50;;;;;;;24.01;38.94;99648.56;2249872;78;20960;-82
2022/08/07 11:00:26;;;;;;;8.18;1.50;;;;;;;23.49;41.58;99657.17;2249761;78;20897;-83
2022/08/07 11:03:25;;;;;;;13.65;7.42;;;;;;;22.94;42.78;99656.40;2249857;78;20900;-82
2022/08/07 11:06:25;;;;;;;2.67;1.10;;;;;;;22.47;43.20;99644.61;2249780;79;21237;-83
2022/08/07 11:09:26;;;;;;;3.35;1.67;;;;;;;22.17;42.72;99647.53;2249155;78;20987;-82
2022/08/07 11:12:26;;;;;;;3.77;1.60;;;;;;;22.21;44.22;99639.90;2249833;78;20924;-82
2022/08/07 11:15:26;;;;;;;8.45;1.55;;;;;;;;;;2249487;77;20983;-83
2022/08/07 11:18:27;;;;;;;3.27;1.32;;;;;;;22.85;40.28;99638.41;2249928;79;21383;-82
2022/08/07 11:21:27;;;;;;;3.60;1.40;;;;;;;23.31;40.28;99633.66;2249612;79;20951;-83
2022/08/07 11:24:27;;;;;;;3.75;1.10;;;;;;;23.22;40.29;99625.47;2249764;79;20924;-83
2022/08/07 11:27:28;;;;;;;4.00;1.50;;;;;;;23.27;40.96;99624.88;2249795;78;21362;-83
2022/08/07 11:30:28;;;;;;;2.12;1.02;;;;;;;23.07;39.97;99629.41;2249645;79;20914;-82
2022/08/07 11:33:29;;;;;;;2.47;1.10;;;;;;;22.50;40.11;99625.91;2249977;78;20928;-83
2022/08/07 11:36:29;;;;;;;1.27;1.17;;;;;;;22.26;40.99;99626.50;2249507;78;21398;-82
2022/08/07 11:39:30;;;;;;;1.30;0.70;;;;;;;22.28;41.88;99626.47;2249197;79;20936;-82
2022/08/07 11:42:30;;;;;;;2.47;1.30;;;;;;;23.10;40.93;99619.14;2249539;78;20936;-81
2022/08/07 11:45:30;;;;;;;1.60;1.10;;;;;;;24.18;39.81;99621.84;2248772;78;21391;-82
2022/08/07 11:48:31;;;;;;;2.05;1.32;;;;;;;24.44;37.06;99625.96;2249122;78;20972;-82
2022/08/07 11:51:31;;;;;;;2.10;1.30;;;;;;;23.68;38.22;99620.24;2249555;79;20940;-82
2022/08/07 11:54:31;;;;;;;3.35;1.25;;;;;;;23.11;38.95;99624.88;2250131;78;20932;-82
2022/08/07 11:57:32;;;;;;;1.90;1.00;;;;;;;22.63;40.30;99616.34;2250101;79;20978;-82
2022/08/07 12:00:32;;;;;;;1.72;1.22;;;;;;;22.20;40.58;99623.52;2250262;78;20959;-82
2022/08/07 12:03:33;;;;;;;2.27;1.45;;;;;;;22.06;41.75;99618.98;2250137;78;20960;-82
2022/08/07 12:06:34;;;;;;;1.75;1.00;;;;;;;22.16;40.73;99620.52;2249692;78;21351;-82
2022/08/07 12:09:34;;;;;;;1.62;1.02;;;;;;;22.44;39.86;99619.87;2249986;78;20904;-82
2022/08/07 12:12:34;;;;;;;2.62;1.12;;;;;;;22.71;40.06;99608.58;2249986;79;20951;-82
2022/08/07 12:15:34;;;;;;;3.33;1.30;;;;;;;23.25;39.11;99597.41;2249065;77;20983;-82
2022/08/07 12:18:35;;;;;;;2.65;1.02;;;;;;;23.38;37.16;99600.61;2249248;78;20908;-81
2022/08/07 12:21:35;;;;;;;2.42;1.10;;;;;;;23.39;37.39;99597.91;2249550;78;21271;-81
2022/08/07 12:24:36;;;;;;;1.82;0.95;;;;;;;23.68;37.41;99590.92;2249213;78;20968;-82
2022/08/07 12:27:36;;;;;;;1.42;1.30;;;;;;;23.81;37.42;99589.64;2249632;78;20947;-81
2022/08/07 12:30:36;;;;;;;51.60;37.88;;;;;;;23.83;36.81;99583.34;2249660;78;21276;-82
2022/08/07 12:33:37;;;;;;;3.60;1.00;;;;;;;23.83;36.74;99579.80;2249580;79;20951;-82
2022/08/07 12:36:37;;;;;;;4.15;1.00;;;;;;;23.79;36.47;99583.48;2249567;78;20967;-83
2022/08/07 12:39:38;;;;;;;1.60;0.90;;;;;;;23.75;36.51;99585.37;2249190;78;21351;-82
2022/08/07 12:42:38;;;;;;;1.92;0.85;;;;;;;23.87;36.19;99583.25;2248804;78;20996;-81
2022/08/07 12:45:38;;;;;;;1.85;1.05;;;;;;;24.17;36.67;99587.63;2248567;79;20960;-82
2022/08/07 12:48:39;;;;;;;1.02;0.90;;;;;;;24.40;35.83;99581.63;2249307;78;21036;-81
2022/08/07 12:51:39;;;;;;;3.20;0.90;;;;;;;24.52;36.17;99578.55;2249453;78;20943;-82
2022/08/07 12:54:40;;;;;;;1.15;0.90;;;;;;;24.66;36.12;99570.95;2249456;78;20904;-81
2022/08/07 12:57:40;;;;;;;6.25;1.17;;;;;;;24.79;35.41;99568.73;2249284;78;20928;-81
2022/08/07 13:00:41;;;;;;;2.00;0.88;;;;;;;24.87;35.42;99568.00;2249158;79;20964;-80
2022/08/07 13:03:41;;;;;;;1.47;0.93;;;;;;;24.80;34.19;99562.47;2248909;78;20986;-81
2022/08/07 13:06:44;;;;;;;2.15;0.93;;;;;;;24.82;34.52;99571.76;2249335;78;20923;-81
2022/08/07 13:09:44;;;;;;;0.93;0.87;;;;;;;24.65;33.67;99571.88;2249513;78;20927;-81
2022/08/07 13:12:44;;;;;;;1.15;0.90;;;;;;;24.68;34.10;99569.09;2249023;78;20932;-80
2022/08/07 13:15:44;;;;;;;2.08;0.90;;;;;;;24.96;34.20;99568.14;2271727;78;20993;-81
2022/08/07 13:18:45;;;;;;;1.52;0.93;;;;;;;25.19;33.29;99560.70;2281226;77;21029;-81
2022/08/07 13:21:45;;;;;;;3.25;1.10;;;;;;;25.09;32.36;99565.02;2281339;78;20908;-81
2022/08/07 13:24:46;;;;;;;1.72;0.90;;;;;;;24.98;33.96;99555.64;2281206;78;21314;-80
2022/08/07 13:27:46;;;;;;;2.35;1.10;;;;;;;25.23;33.03;99555.20;2281028;77;21002;-81
2022/08/07 13:30:46;;;;;;;1.37;0.95;;;;;;;25.32;33.25;99558.00;2281509;77;20967;-81
2022/08/07 13:33:47;;;;;;;1.52;0.85;;;;;;;24.97;34.10;99556.53;2280682;78;21255;-81
2022/08/07 13:36:47;;;;;;;2.50;1.00;;;;;;;24.55;34.41;99549.09;2280772;78;21357;-82
2022/08/07 13:39:48;;;;;;;1.98;1.37;;;;;;;24.11;35.46;99550.02;2280958;78;20906;-81
2022/08/07 13:42:48;;;;;;;1.00;0.90;;;;;;;23.79;36.44;99555.48;2280920;78;20981;-80
2022/08/07 13:45:49;;;;;;;1.75;1.10;;;;;;;23.53;36.63;99546.91;2281009;78;20946;-80
2022/08/07 13:48:49;;;;;;;1.87;1.32;;;;;;;23.62;37.05;99549.80;2281162;78;21270;-80
2022/08/07 13:51:49;;;;;;;2.17;1.07;;;;;;;24.23;36.13;99545.21;2281268;78;20965;-80
2022/08/07 13:54:50;;;;;;;1.57;0.98;;;;;;;24.70;35.24;99544.56;2281283;78;20947;-81
2022/08/07 13:57:50;;;;;;;5.45;1.00;;;;;;;24.90;34.63;99542.53;2280476;78;20973;-80
2022/08/07 14:00:51;;;;;;;2.47;1.00;;;;;;;25.11;33.98;99541.38;2280430;78;20926;-81
2022/08/07 14:03:51;;;;;;;2.62;1.22;;;;;;;25.05;34.15;99539.34;2280676;78;20934;-80
2022/08/07 14:06:51;;;;;;;2.30;1.30;;;;;;;24.61;34.44;99541.33;2280840;78;20962;-80
2022/08/07 14:09:52;;;;;;;2.12;1.42;;;;;;;24.43;33.89;99537.03;2280780;78;21350;-80
2022/08/07 14:12:54;;;;;;;1.05;0.90;;;;;;;24.33;34.77;99533.38;2281174;78;20938;-80